Ashotsk, Armenia

5:53 PM AMT on November 01, 2014 (GMT +0400)
SHIRAK | Change Station
CLOSE
Current Station
Airport
Location: SHIRAK,
Elevation: 5000 ft
Nearby Weather Stations

Elev 5000 ft 40.75 °N, 43.86 °E | Updated 23 minutes ago

Light Rain Showers
Light Showers Rain
46 °F
Feels Like 40 °F
N
13
Wind Variable Wind from SW

Today
High -- | Low -- °F
--% Chance of Precip.
Yesterday
High -- | Low -- °F
Precip. -- in
7:35 AM 6:01 PM
Waxing Gibbous, 66% visible
Pressure 29.80 in
Visibility 6.2 miles
Clouds Mostly Cloudy 3300 ft
Overcast 10000 ft
Windchill 40 °F
Dew Point 41 °F
Humidity 81%
Rainfall 0.00 in
Snow Depth Not available.
UV 0 out of 12
Pollen Not available.
Air Quality Not available.
Flu Activity Not available.
METAR UDSG 011330Z 23006MPS 9999 -SHRA BKN033CB OVC100 08/05 Q1009 R02/CLRD70 NOSIG

More Conditions Fewer Conditions

Pressure 29.80 in
Visibility 6.2 miles
Clouds Mostly Cloudy 3300 ft
Overcast 10000 ft
Windchill 40 °F
Dew Point 41 °F
Humidity 81%
Rainfall 0.00 in
Snow Depth Not available.
UV 0 out of 12
Pollen Not available.
Air Quality Not available.
Flu Activity Not available.
METAR UDSG 011330Z 23006MPS 9999 -SHRA BKN033CB OVC100 08/05 Q1009 R02/CLRD70 NOSIG

More Conditions Fewer Conditions

10-Day Weather Forecast

Almanac

Astronomy

Nov. 01, 2014 Rise Set
Actual Time
Civil Twilight
Nautical Twilight
Astronomical Twilight
Moon
Length of Visible Light
Length of Day
Tomorrow will be .
, % of the Moon is Illuminated

Today's Extremes

Country Highs Country Lows

Community

WunderPhotos

Upload Photos

1,766,937 photos uploaded!

WunderBlogs® & News

Nearby

Air Quality

  Air Quality AQ Index Pollutant
Not available.

Snow Depth

Station Depth Elevation

Earthquake Activity

City Distance Mag. Time & Date
Minimum magnitude displayed is 2.5.

Coastal Water Temperatures

Place Temperature

Nearby Weather Stations